createdAt,value
2023-05-21T00:00:30.381Z,1004.92
2023-05-21T00:05:30.321Z,1004.82
2023-05-21T00:10:30.246Z,1004.91
2023-05-21T00:15:30.169Z,1004.74
2023-05-21T00:20:30.111Z,1004.82
2023-05-21T00:25:30.046Z,1004.77
2023-05-21T00:30:29.965Z,1004.73
2023-05-21T00:35:29.904Z,1004.65
2023-05-21T00:40:29.835Z,1004.65
2023-05-21T00:45:30.009Z,1004.63
2023-05-21T00:50:29.689Z,1004.52
2023-05-21T00:55:29.632Z,1004.58
2023-05-21T01:00:29.566Z,1004.53
2023-05-21T01:05:29.535Z,1004.50
2023-05-21T01:10:29.429Z,1004.53
2023-05-21T01:15:29.365Z,1004.51
2023-05-21T01:20:29.299Z,1004.42
2023-05-21T01:25:29.244Z,1004.44
2023-05-21T01:30:29.164Z,1004.40
2023-05-21T01:35:29.099Z,1004.35
2023-05-21T01:40:29.031Z,1004.23
2023-05-21T01:45:28.990Z,1004.23
2023-05-21T01:50:28.895Z,1004.19
2023-05-21T01:55:28.846Z,1004.15
2023-05-21T02:00:28.767Z,1004.13
2023-05-21T02:05:28.721Z,1004.15
2023-05-21T02:10:28.635Z,1004.07
2023-05-21T02:15:28.565Z,1003.97
2023-05-21T02:20:28.496Z,1004.19
2023-05-21T02:25:28.433Z,1004.00
2023-05-21T02:30:28.374Z,1004.01
2023-05-21T02:35:28.297Z,1004.01
2023-05-21T02:40:28.229Z,1004.00
2023-05-21T02:45:28.179Z,1004.13
2023-05-21T02:50:28.089Z,1004.12
2023-05-21T02:55:28.024Z,1004.01
2023-05-21T03:00:27.977Z,1004.00
2023-05-21T03:05:27.897Z,1003.96
2023-05-21T03:10:27.819Z,1003.97
2023-05-21T03:15:27.757Z,1003.91
2023-05-21T03:20:27.687Z,1003.83
2023-05-21T03:25:27.625Z,1003.85
2023-05-21T03:30:27.546Z,1003.88
2023-05-21T03:35:27.498Z,1003.89
2023-05-21T03:40:27.413Z,1003.88
2023-05-21T03:45:27.349Z,1003.92
2023-05-21T03:50:27.303Z,1003.99
2023-05-21T03:55:27.230Z,1003.92
2023-05-21T04:00:27.138Z,1003.96
2023-05-21T04:05:27.081Z,1004.04
2023-05-21T04:10:27.029Z,1004.00
2023-05-21T04:15:26.959Z,1003.91
2023-05-21T04:20:26.885Z,1004.03
2023-05-21T04:25:26.818Z,1003.99
2023-05-21T04:30:26.758Z,1003.99
2023-05-21T04:35:26.690Z,1004.10
2023-05-21T04:40:26.627Z,1004.04
2023-05-21T04:45:26.586Z,1004.13
2023-05-21T04:50:26.477Z,1004.10
2023-05-21T04:55:26.443Z,1004.09
2023-05-21T05:00:26.370Z,1004.12
2023-05-21T05:05:26.282Z,1004.12
2023-05-21T05:10:26.210Z,1004.06
2023-05-21T05:15:26.413Z,1004.10
2023-05-21T05:20:26.091Z,1004.07
2023-05-21T05:25:26.038Z,1003.97
2023-05-21T05:30:25.960Z,1003.90
2023-05-21T05:35:25.900Z,1003.77
2023-05-21T05:40:25.846Z,1003.70
2023-05-21T05:45:25.781Z,1003.59
2023-05-21T05:50:25.711Z,1003.70
2023-05-21T05:55:25.646Z,1003.71
2023-05-21T06:00:25.616Z,1003.66
2023-05-21T06:05:25.570Z,1003.64
2023-05-21T06:10:25.449Z,1003.68
2023-05-21T06:15:25.385Z,1003.62
2023-05-21T06:20:25.336Z,1003.55
2023-05-21T06:25:25.270Z,1003.45
2023-05-21T06:30:25.219Z,1003.41
2023-05-21T06:35:25.145Z,1003.44
2023-05-21T06:40:25.064Z,1003.39
2023-05-21T06:45:25.065Z,1003.37
2023-05-21T06:50:24.942Z,1003.36
2023-05-21T06:55:24.896Z,1003.33
2023-05-21T07:00:25.193Z,1003.40
2023-05-21T07:05:24.751Z,1003.42
2023-05-21T07:10:26.120Z,1003.38
2023-05-21T07:15:24.637Z,1003.42
2023-05-21T07:20:27.273Z,1003.47
2023-05-21T07:25:24.482Z,1003.36
2023-05-21T07:30:24.447Z,1003.36
2023-05-21T07:35:24.356Z,1003.40
2023-05-21T07:40:24.322Z,1003.36
2023-05-21T07:45:24.257Z,1003.40
2023-05-21T07:50:24.212Z,1003.38
2023-05-21T07:55:24.121Z,1003.41
2023-05-21T08:00:24.072Z,1003.42
2023-05-21T08:05:23.986Z,1003.43
2023-05-21T08:10:23.946Z,1003.41
2023-05-21T08:15:23.837Z,1003.41
2023-05-21T08:20:23.766Z,1003.38
2023-05-21T08:25:23.724Z,1003.45
2023-05-21T08:30:23.636Z,1003.46
2023-05-21T08:35:23.584Z,1003.45
2023-05-21T08:40:23.539Z,1003.40
2023-05-21T08:45:23.473Z,1003.37
2023-05-21T08:50:23.387Z,1003.40
2023-05-21T08:55:23.361Z,1003.38
2023-05-21T09:00:23.271Z,1003.32
2023-05-21T09:05:23.198Z,1003.40
2023-05-21T09:10:23.136Z,1003.26
2023-05-21T09:15:23.070Z,1003.22
2023-05-21T09:20:23.025Z,1003.24
2023-05-21T09:25:22.941Z,1003.23
2023-05-21T09:30:26.774Z,1003.15
2023-05-21T09:35:23.811Z,1003.19
2023-05-21T09:40:22.730Z,1003.25
2023-05-21T09:45:22.686Z,1003.13
2023-05-21T09:50:22.616Z,1003.14
2023-05-21T09:55:22.556Z,1003.13
2023-05-21T10:00:22.494Z,1003.15
2023-05-21T10:05:22.427Z,1003.16
2023-05-21T10:10:22.353Z,1003.09
2023-05-21T10:15:22.347Z,1003.07
2023-05-21T10:20:22.229Z,1003.15
2023-05-21T10:25:22.162Z,1003.16
2023-05-21T10:30:22.097Z,1003.10
2023-05-21T10:35:22.040Z,1003.18
2023-05-21T10:40:21.988Z,1002.98
2023-05-21T10:45:21.905Z,1003.06
2023-05-21T10:50:21.881Z,1003.10
2023-05-21T10:55:21.781Z,1003.07
2023-05-21T11:00:21.800Z,1002.93
2023-05-21T11:05:21.664Z,1002.99
2023-05-21T11:10:21.579Z,1002.80
2023-05-21T11:15:21.539Z,1002.85
2023-05-21T11:20:21.459Z,1002.77
2023-05-21T11:25:21.397Z,1002.86
2023-05-21T11:30:21.318Z,1002.74
2023-05-21T11:35:21.287Z,1002.75
2023-05-21T11:40:21.183Z,1002.75
2023-05-21T11:45:21.143Z,1002.72
2023-05-21T11:50:21.054Z,1002.60
2023-05-21T11:55:21.046Z,1002.75
2023-05-21T12:00:20.916Z,1002.73
2023-05-21T12:05:20.867Z,1002.67
2023-05-21T12:10:20.883Z,1002.71
2023-05-21T12:15:20.802Z,1002.65
2023-05-21T12:20:20.712Z,1002.65
2023-05-21T12:25:20.606Z,1002.71
2023-05-21T12:30:20.518Z,1002.67
2023-05-21T12:35:20.503Z,1002.72
2023-05-21T12:40:20.404Z,1002.70
2023-05-21T12:45:20.340Z,1002.75
2023-05-21T12:50:20.281Z,1002.65
2023-05-21T12:55:20.208Z,1002.54
2023-05-21T13:00:20.140Z,1002.44
2023-05-21T13:05:20.181Z,1002.51
2023-05-21T13:10:20.005Z,1002.44
2023-05-21T13:15:19.944Z,1002.43
2023-05-21T13:20:19.875Z,1002.35
2023-05-21T13:25:19.880Z,1002.35
2023-05-21T13:30:20.074Z,1002.32
2023-05-21T13:35:19.736Z,1002.36
2023-05-21T13:40:19.928Z,1002.30
2023-05-21T13:45:19.626Z,1002.23
2023-05-21T13:50:19.537Z,1002.14
2023-05-21T13:55:19.459Z,1002.21
2023-05-21T14:00:19.380Z,1002.14
2023-05-21T14:05:19.322Z,1002.21
2023-05-21T14:10:19.277Z,1002.14
2023-05-21T14:15:19.178Z,1002.16
2023-05-21T14:20:19.129Z,1002.12
2023-05-21T14:25:19.066Z,1002.03
2023-05-21T14:30:18.997Z,1002.14
2023-05-21T14:35:18.943Z,1002.07
2023-05-21T14:40:18.864Z,1001.95
2023-05-21T14:45:19.542Z,1002.02
2023-05-21T14:50:18.743Z,1002.00
2023-05-21T14:55:18.681Z,1001.99
2023-05-21T15:00:18.632Z,1002.06
2023-05-21T15:05:18.837Z,1002.01
2023-05-21T15:10:18.803Z,1001.98
2023-05-21T15:15:18.381Z,1001.95
2023-05-21T15:20:19.252Z,1001.95
2023-05-21T15:25:18.253Z,1001.90
2023-05-21T15:30:18.173Z,1001.87
2023-05-21T15:35:18.499Z,1002.00
2023-05-21T15:40:18.034Z,1001.94
2023-05-21T15:45:17.992Z,1001.87
2023-05-21T15:50:17.980Z,1001.80
2023-05-21T15:55:18.279Z,1001.72
2023-05-21T16:00:23.104Z,1001.83
2023-05-21T16:05:17.778Z,1001.73
2023-05-21T16:10:17.689Z,1001.77
2023-05-21T16:15:17.866Z,1001.72
2023-05-21T16:20:17.516Z,1001.72
2023-05-21T16:25:17.456Z,1001.72
2023-05-21T16:30:17.381Z,1001.68
2023-05-21T16:35:17.396Z,1001.75
2023-05-21T16:40:17.316Z,1001.74
2023-05-21T16:45:17.186Z,1001.75
2023-05-21T16:50:17.398Z,1001.76
2023-05-21T16:55:17.081Z,1001.77
2023-05-21T17:00:16.993Z,1001.76
2023-05-21T17:05:16.929Z,1001.78
2023-05-21T17:10:17.758Z,1001.67
2023-05-21T17:15:16.827Z,1001.56
2023-05-21T17:20:17.405Z,1001.54
2023-05-21T17:25:16.725Z,1001.68
2023-05-21T17:30:16.633Z,1001.80
2023-05-21T17:35:16.575Z,1001.70
2023-05-21T17:40:16.502Z,1001.86
2023-05-21T17:45:16.426Z,1001.79
2023-05-21T17:50:16.338Z,1001.77
2023-05-21T17:55:16.299Z,1001.85
2023-05-21T18:00:16.232Z,1001.88
2023-05-21T18:05:16.149Z,1001.92
2023-05-21T18:10:16.210Z,1001.97
2023-05-21T18:15:16.021Z,1002.05
2023-05-21T18:20:15.943Z,1002.10
2023-05-21T18:25:16.017Z,1002.09
2023-05-21T18:30:15.925Z,1002.15
2023-05-21T18:35:16.782Z,1002.15
2023-05-21T18:40:15.685Z,1002.08
2023-05-21T18:45:15.623Z,1002.11
2023-05-21T18:50:15.545Z,1002.12
2023-05-21T18:55:15.471Z,1002.20
2023-05-21T19:00:15.416Z,1002.18
2023-05-21T19:05:15.385Z,1002.28
2023-05-21T19:10:15.286Z,1002.28
2023-05-21T19:15:15.211Z,1002.26
2023-05-21T19:20:15.141Z,1002.17
2023-05-21T19:25:15.064Z,1002.25
2023-05-21T19:30:14.979Z,1002.27
2023-05-21T19:35:14.930Z,1002.34
2023-05-21T19:40:14.895Z,1002.38
2023-05-21T19:45:14.799Z,1002.43
2023-05-21T19:50:14.740Z,1002.36
2023-05-21T19:55:14.670Z,1002.37
2023-05-21T20:00:14.589Z,1002.38
2023-05-21T20:05:14.570Z,1002.42
2023-05-21T20:10:14.464Z,1002.43
2023-05-21T20:15:14.396Z,1002.40
2023-05-21T20:20:14.335Z,1002.36
2023-05-21T20:25:14.306Z,1002.38
2023-05-21T20:30:14.195Z,1002.32
2023-05-21T20:35:14.120Z,1002.37
2023-05-21T20:40:14.960Z,1002.52
2023-05-21T20:45:13.988Z,1002.44
2023-05-21T20:50:13.979Z,1002.44
2023-05-21T20:55:13.917Z,1002.37
2023-05-21T21:00:13.882Z,1002.37
2023-05-21T21:05:13.828Z,1002.38
2023-05-21T21:10:13.650Z,1002.43
2023-05-21T21:15:13.583Z,1002.47
2023-05-21T21:20:13.526Z,1002.42
2023-05-21T21:25:13.452Z,1002.42
2023-05-21T21:30:13.385Z,1002.48
2023-05-21T21:35:13.310Z,1002.52
2023-05-21T21:40:13.250Z,1002.49
2023-05-21T21:45:13.172Z,1002.50
2023-05-21T21:50:13.119Z,1002.53
2023-05-21T21:55:13.050Z,1002.50
2023-05-21T22:00:12.983Z,1002.51
2023-05-21T22:05:12.914Z,1002.49
2023-05-21T22:10:12.852Z,1002.51
2023-05-21T22:15:12.785Z,1002.46
2023-05-21T22:20:12.724Z,1002.48
2023-05-21T22:25:12.656Z,1002.50
2023-05-21T22:30:12.608Z,1002.53
2023-05-21T22:35:12.523Z,1002.46
2023-05-21T22:40:12.466Z,1002.42
2023-05-21T22:45:12.389Z,1002.36
2023-05-21T22:50:12.332Z,1002.49
2023-05-21T22:55:12.290Z,1002.50
2023-05-21T23:00:12.214Z,1002.51
2023-05-21T23:05:12.176Z,1002.42
2023-05-21T23:10:12.053Z,1002.51
2023-05-21T23:15:11.995Z,1002.37
2023-05-21T23:20:11.924Z,1002.35
2023-05-21T23:25:11.855Z,1002.43
2023-05-21T23:30:11.802Z,1002.41
2023-05-21T23:35:11.722Z,1002.36
2023-05-21T23:40:11.665Z,1002.28
2023-05-21T23:45:11.605Z,1002.28
2023-05-21T23:50:11.521Z,1002.34
2023-05-21T23:55:11.475Z,1002.37
